sensor_id;sensor_type;location;lat;lon;timestamp;P1;durP1;ratioP1;P2;durP2;ratioP2
83284;SDS011;73191;50.074;8.488;2024-01-07T00:01:47;3.53;;;1.90;;
83284;SDS011;73191;50.074;8.488;2024-01-07T00:04:15;2.72;;;1.70;;
83284;SDS011;73191;50.074;8.488;2024-01-07T00:06:43;3.92;;;2.00;;
83284;SDS011;73191;50.074;8.488;2024-01-07T00:09:12;3.15;;;1.80;;
83284;SDS011;73191;50.074;8.488;2024-01-07T00:11:40;3.05;;;1.80;;
83284;SDS011;73191;50.074;8.488;2024-01-07T00:14:08;5.00;;;2.13;;
83284;SDS011;73191;50.074;8.488;2024-01-07T00:16:35;3.92;;;2.40;;
83284;SDS011;73191;50.074;8.488;2024-01-07T00:19:03;4.53;;;2.35;;
83284;SDS011;73191;50.074;8.488;2024-01-07T00:21:31;3.50;;;2.05;;
83284;SDS011;73191;50.074;8.488;2024-01-07T00:23:59;3.15;;;2.30;;
83284;SDS011;73191;50.074;8.488;2024-01-07T00:26:28;4.45;;;2.40;;
83284;SDS011;73191;50.074;8.488;2024-01-07T00:28:55;5.35;;;2.30;;
83284;SDS011;73191;50.074;8.488;2024-01-07T00:31:23;5.57;;;1.90;;
83284;SDS011;73191;50.074;8.488;2024-01-07T00:33:51;2.58;;;1.75;;
83284;SDS011;73191;50.074;8.488;2024-01-07T00:36:18;3.22;;;2.20;;
83284;SDS011;73191;50.074;8.488;2024-01-07T00:38:46;3.83;;;2.00;;
83284;SDS011;73191;50.074;8.488;2024-01-07T00:41:14;4.05;;;1.98;;
83284;SDS011;73191;50.074;8.488;2024-01-07T00:43:43;3.40;;;1.92;;
83284;SDS011;73191;50.074;8.488;2024-01-07T00:46:10;4.10;;;2.13;;
83284;SDS011;73191;50.074;8.488;2024-01-07T00:48:38;2.67;;;1.70;;
83284;SDS011;73191;50.074;8.488;2024-01-07T00:51:06;4.47;;;2.50;;
83284;SDS011;73191;50.074;8.488;2024-01-07T00:53:33;3.50;;;2.40;;
83284;SDS011;73191;50.074;8.488;2024-01-07T00:56:01;3.92;;;2.25;;
83284;SDS011;73191;50.074;8.488;2024-01-07T00:58:29;3.80;;;2.03;;
83284;SDS011;73191;50.074;8.488;2024-01-07T01:00:58;3.28;;;2.03;;
83284;SDS011;73191;50.074;8.488;2024-01-07T01:03:26;3.75;;;2.20;;
83284;SDS011;73191;50.074;8.488;2024-01-07T01:05:54;3.92;;;2.33;;
83284;SDS011;73191;50.074;8.488;2024-01-07T01:08:22;3.38;;;2.10;;
83284;SDS011;73191;50.074;8.488;2024-01-07T01:10:50;2.88;;;1.80;;
83284;SDS011;73191;50.074;8.488;2024-01-07T01:13:17;3.58;;;2.05;;
83284;SDS011;73191;50.074;8.488;2024-01-07T01:15:45;3.22;;;1.90;;
83284;SDS011;73191;50.074;8.488;2024-01-07T01:18:14;4.13;;;2.15;;
83284;SDS011;73191;50.074;8.488;2024-01-07T01:20:42;3.55;;;2.13;;
83284;SDS011;73191;50.074;8.488;2024-01-07T01:23:09;3.88;;;1.92;;
83284;SDS011;73191;50.074;8.488;2024-01-07T01:25:37;3.20;;;1.80;;
83284;SDS011;73191;50.074;8.488;2024-01-07T01:28:06;3.38;;;1.95;;
83284;SDS011;73191;50.074;8.488;2024-01-07T01:30:34;3.33;;;1.75;;
83284;SDS011;73191;50.074;8.488;2024-01-07T01:33:01;2.60;;;1.60;;
83284;SDS011;73191;50.074;8.488;2024-01-07T01:35:31;3.08;;;1.63;;
83284;SDS011;73191;50.074;8.488;2024-01-07T01:37:59;3.10;;;1.80;;
83284;SDS011;73191;50.074;8.488;2024-01-07T01:40:26;2.65;;;1.50;;
83284;SDS011;73191;50.074;8.488;2024-01-07T01:42:54;2.53;;;1.52;;
83284;SDS011;73191;50.074;8.488;2024-01-07T01:45:22;2.53;;;1.50;;
83284;SDS011;73191;50.074;8.488;2024-01-07T01:47:50;2.85;;;1.80;;
83284;SDS011;73191;50.074;8.488;2024-01-07T01:50:18;2.35;;;1.40;;
83284;SDS011;73191;50.074;8.488;2024-01-07T01:52:47;3.35;;;1.55;;
83284;SDS011;73191;50.074;8.488;2024-01-07T01:55:15;2.80;;;1.50;;
83284;SDS011;73191;50.074;8.488;2024-01-07T01:57:43;2.90;;;1.40;;
83284;SDS011;73191;50.074;8.488;2024-01-07T02:00:14;3.03;;;1.70;;
83284;SDS011;73191;50.074;8.488;2024-01-07T02:02:42;2.67;;;1.60;;
83284;SDS011;73191;50.074;8.488;2024-01-07T02:05:09;3.20;;;1.60;;
83284;SDS011;73191;50.074;8.488;2024-01-07T02:07:41;2.03;;;1.40;;
83284;SDS011;73191;50.074;8.488;2024-01-07T02:10:10;2.97;;;1.52;;
83284;SDS011;73191;50.074;8.488;2024-01-07T02:12:38;2.15;;;1.40;;
83284;SDS011;73191;50.074;8.488;2024-01-07T02:15:06;2.20;;;1.23;;
83284;SDS011;73191;50.074;8.488;2024-01-07T02:17:34;2.15;;;1.30;;
83284;SDS011;73191;50.074;8.488;2024-01-07T02:20:02;2.15;;;1.30;;
83284;SDS011;73191;50.074;8.488;2024-01-07T02:22:30;2.15;;;1.40;;
83284;SDS011;73191;50.074;8.488;2024-01-07T02:24:59;1.90;;;1.27;;
83284;SDS011;73191;50.074;8.488;2024-01-07T02:27:27;2.50;;;1.30;;
83284;SDS011;73191;50.074;8.488;2024-01-07T02:29:55;2.10;;;1.42;;
83284;SDS011;73191;50.074;8.488;2024-01-07T02:32:23;1.90;;;1.20;;
83284;SDS011;73191;50.074;8.488;2024-01-07T02:34:51;2.30;;;1.30;;
83284;SDS011;73191;50.074;8.488;2024-01-07T02:37:19;1.55;;;1.20;;
83284;SDS011;73191;50.074;8.488;2024-01-07T02:39:47;2.97;;;1.40;;
83284;SDS011;73191;50.074;8.488;2024-01-07T02:42:27;2.17;;;1.33;;
83284;SDS011;73191;50.074;8.488;2024-01-07T02:44:56;2.08;;;1.40;;
83284;SDS011;73191;50.074;8.488;2024-01-07T02:47:24;1.92;;;1.30;;
83284;SDS011;73191;50.074;8.488;2024-01-07T02:49:54;3.25;;;1.40;;
83284;SDS011;73191;50.074;8.488;2024-01-07T02:52:22;3.28;;;1.45;;
83284;SDS011;73191;50.074;8.488;2024-01-07T02:54:49;2.25;;;1.55;;
83284;SDS011;73191;50.074;8.488;2024-01-07T02:57:16;2.17;;;1.38;;
83284;SDS011;73191;50.074;8.488;2024-01-07T02:59:45;2.58;;;1.55;;
83284;SDS011;73191;50.074;8.488;2024-01-07T03:02:13;2.17;;;1.40;;
83284;SDS011;73191;50.074;8.488;2024-01-07T03:04:41;2.55;;;1.55;;
83284;SDS011;73191;50.074;8.488;2024-01-07T03:07:09;2.00;;;1.60;;
83284;SDS011;73191;50.074;8.488;2024-01-07T03:09:36;2.78;;;1.58;;
83284;SDS011;73191;50.074;8.488;2024-01-07T03:12:04;2.58;;;1.40;;
83284;SDS011;73191;50.074;8.488;2024-01-07T03:14:32;3.20;;;1.75;;
83284;SDS011;73191;50.074;8.488;2024-01-07T03:17:01;2.95;;;1.80;;
83284;SDS011;73191;50.074;8.488;2024-01-07T03:19:28;4.20;;;1.80;;
83284;SDS011;73191;50.074;8.488;2024-01-07T03:21:56;2.47;;;1.60;;
83284;SDS011;73191;50.074;8.488;2024-01-07T03:24:24;3.55;;;1.80;;
83284;SDS011;73191;50.074;8.488;2024-01-07T03:26:52;3.00;;;1.48;;
83284;SDS011;73191;50.074;8.488;2024-01-07T03:29:19;2.85;;;1.70;;
83284;SDS011;73191;50.074;8.488;2024-01-07T03:31:47;3.55;;;1.80;;
83284;SDS011;73191;50.074;8.488;2024-01-07T03:34:16;2.38;;;1.70;;
83284;SDS011;73191;50.074;8.488;2024-01-07T03:36:44;2.25;;;1.52;;
83284;SDS011;73191;50.074;8.488;2024-01-07T03:39:11;2.85;;;1.70;;
83284;SDS011;73191;50.074;8.488;2024-01-07T03:41:39;2.95;;;2.00;;
83284;SDS011;73191;50.074;8.488;2024-01-07T03:44:07;3.15;;;1.88;;
83284;SDS011;73191;50.074;8.488;2024-01-07T03:46:35;4.35;;;2.20;;
83284;SDS011;73191;50.074;8.488;2024-01-07T03:49:02;2.85;;;1.92;;
83284;SDS011;73191;50.074;8.488;2024-01-07T03:51:31;4.32;;;2.30;;
83284;SDS011;73191;50.074;8.488;2024-01-07T03:53:59;4.00;;;2.08;;
83284;SDS011;73191;50.074;8.488;2024-01-07T03:56:28;3.67;;;2.10;;
83284;SDS011;73191;50.074;8.488;2024-01-07T03:58:55;3.30;;;1.90;;
83284;SDS011;73191;50.074;8.488;2024-01-07T04:01:23;4.40;;;2.03;;
83284;SDS011;73191;50.074;8.488;2024-01-07T04:03:51;3.40;;;2.05;;
83284;SDS011;73191;50.074;8.488;2024-01-07T04:06:20;4.68;;;2.72;;
83284;SDS011;73191;50.074;8.488;2024-01-07T04:08:49;4.68;;;2.53;;
83284;SDS011;73191;50.074;8.488;2024-01-07T04:11:17;4.70;;;2.47;;
83284;SDS011;73191;50.074;8.488;2024-01-07T04:13:44;4.78;;;2.60;;
83284;SDS011;73191;50.074;8.488;2024-01-07T04:16:15;3.97;;;2.38;;
83284;SDS011;73191;50.074;8.488;2024-01-07T04:18:43;6.93;;;2.55;;
83284;SDS011;73191;50.074;8.488;2024-01-07T04:21:15;3.72;;;2.53;;
83284;SDS011;73191;50.074;8.488;2024-01-07T04:23:43;4.55;;;2.50;;
83284;SDS011;73191;50.074;8.488;2024-01-07T04:26:12;5.40;;;2.83;;
83284;SDS011;73191;50.074;8.488;2024-01-07T04:28:40;4.35;;;2.55;;
83284;SDS011;73191;50.074;8.488;2024-01-07T04:31:08;4.93;;;3.13;;
83284;SDS011;73191;50.074;8.488;2024-01-07T04:33:37;6.28;;;3.22;;
83284;SDS011;73191;50.074;8.488;2024-01-07T04:36:05;6.15;;;2.90;;
83284;SDS011;73191;50.074;8.488;2024-01-07T04:38:33;4.05;;;2.50;;
83284;SDS011;73191;50.074;8.488;2024-01-07T04:41:01;4.60;;;2.40;;
83284;SDS011;73191;50.074;8.488;2024-01-07T04:43:30;3.92;;;2.10;;
83284;SDS011;73191;50.074;8.488;2024-01-07T04:45:58;4.30;;;2.42;;
83284;SDS011;73191;50.074;8.488;2024-01-07T04:48:26;3.88;;;2.45;;
83284;SDS011;73191;50.074;8.488;2024-01-07T04:50:53;3.60;;;2.00;;
83284;SDS011;73191;50.074;8.488;2024-01-07T04:53:21;4.18;;;2.17;;
83284;SDS011;73191;50.074;8.488;2024-01-07T04:55:49;3.63;;;1.90;;
83284;SDS011;73191;50.074;8.488;2024-01-07T04:58:16;4.07;;;2.30;;
83284;SDS011;73191;50.074;8.488;2024-01-07T05:00:45;4.50;;;2.55;;
83284;SDS011;73191;50.074;8.488;2024-01-07T05:03:13;4.90;;;2.90;;
83284;SDS011;73191;50.074;8.488;2024-01-07T05:05:41;5.80;;;3.10;;
83284;SDS011;73191;50.074;8.488;2024-01-07T05:08:08;6.25;;;3.03;;
83284;SDS011;73191;50.074;8.488;2024-01-07T05:10:36;6.53;;;3.20;;
83284;SDS011;73191;50.074;8.488;2024-01-07T05:13:04;7.07;;;3.53;;
83284;SDS011;73191;50.074;8.488;2024-01-07T05:15:33;9.48;;;4.15;;
83284;SDS011;73191;50.074;8.488;2024-01-07T05:18:02;8.77;;;4.00;;
83284;SDS011;73191;50.074;8.488;2024-01-07T05:20:30;9.98;;;3.92;;
83284;SDS011;73191;50.074;8.488;2024-01-07T05:22:57;10.57;;;4.78;;
83284;SDS011;73191;50.074;8.488;2024-01-07T05:25:25;7.63;;;3.63;;
83284;SDS011;73191;50.074;8.488;2024-01-07T05:27:52;9.43;;;4.20;;
83284;SDS011;73191;50.074;8.488;2024-01-07T05:30:20;7.70;;;4.80;;
83284;SDS011;73191;50.074;8.488;2024-01-07T05:32:48;9.93;;;5.22;;
83284;SDS011;73191;50.074;8.488;2024-01-07T05:35:17;7.50;;;4.90;;
83284;SDS011;73191;50.074;8.488;2024-01-07T05:37:45;10.68;;;5.07;;
83284;SDS011;73191;50.074;8.488;2024-01-07T05:40:12;11.65;;;6.22;;
83284;SDS011;73191;50.074;8.488;2024-01-07T05:42:41;12.82;;;5.93;;
83284;SDS011;73191;50.074;8.488;2024-01-07T05:45:08;13.82;;;6.50;;
83284;SDS011;73191;50.074;8.488;2024-01-07T05:47:36;15.95;;;6.60;;
83284;SDS011;73191;50.074;8.488;2024-01-07T05:50:04;15.40;;;7.93;;
83284;SDS011;73191;50.074;8.488;2024-01-07T05:52:33;12.27;;;6.53;;
83284;SDS011;73191;50.074;8.488;2024-01-07T05:55:01;12.00;;;7.13;;
83284;SDS011;73191;50.074;8.488;2024-01-07T05:57:29;14.50;;;7.38;;
83284;SDS011;73191;50.074;8.488;2024-01-07T05:59:56;16.48;;;7.03;;
83284;SDS011;73191;50.074;8.488;2024-01-07T06:02:24;13.95;;;7.18;;
83284;SDS011;73191;50.074;8.488;2024-01-07T06:04:52;15.07;;;7.63;;
83284;SDS011;73191;50.074;8.488;2024-01-07T06:07:20;13.40;;;7.20;;
83284;SDS011;73191;50.074;8.488;2024-01-07T06:09:49;13.88;;;7.47;;
83284;SDS011;73191;50.074;8.488;2024-01-07T06:12:16;12.75;;;6.43;;
83284;SDS011;73191;50.074;8.488;2024-01-07T06:14:44;11.82;;;6.53;;
83284;SDS011;73191;50.074;8.488;2024-01-07T06:17:11;11.77;;;6.55;;
83284;SDS011;73191;50.074;8.488;2024-01-07T06:19:39;12.52;;;6.07;;
83284;SDS011;73191;50.074;8.488;2024-01-07T06:22:07;10.95;;;6.18;;
83284;SDS011;73191;50.074;8.488;2024-01-07T06:24:34;11.88;;;6.40;;
83284;SDS011;73191;50.074;8.488;2024-01-07T06:27:04;11.57;;;5.97;;
83284;SDS011;73191;50.074;8.488;2024-01-07T06:29:32;9.23;;;5.47;;
83284;SDS011;73191;50.074;8.488;2024-01-07T06:32:00;8.80;;;5.15;;
83284;SDS011;73191;50.074;8.488;2024-01-07T06:34:27;9.85;;;5.30;;
83284;SDS011;73191;50.074;8.488;2024-01-07T06:36:55;6.65;;;4.15;;
83284;SDS011;73191;50.074;8.488;2024-01-07T06:39:23;8.23;;;5.18;;
83284;SDS011;73191;50.074;8.488;2024-01-07T06:41:51;6.13;;;3.72;;
83284;SDS011;73191;50.074;8.488;2024-01-07T06:44:19;7.25;;;4.43;;
83284;SDS011;73191;50.074;8.488;2024-01-07T06:46:47;7.30;;;4.35;;
83284;SDS011;73191;50.074;8.488;2024-01-07T06:51:42;6.75;;;3.85;;
83284;SDS011;73191;50.074;8.488;2024-01-07T06:54:10;7.90;;;4.00;;
83284;SDS011;73191;50.074;8.488;2024-01-07T06:56:40;5.85;;;4.15;;
83284;SDS011;73191;50.074;8.488;2024-01-07T06:59:08;8.05;;;4.45;;
83284;SDS011;73191;50.074;8.488;2024-01-07T07:01:38;6.55;;;3.70;;
83284;SDS011;73191;50.074;8.488;2024-01-07T07:04:06;8.48;;;4.25;;
83284;SDS011;73191;50.074;8.488;2024-01-07T07:06:34;8.80;;;4.50;;
83284;SDS011;73191;50.074;8.488;2024-01-07T07:09:02;7.13;;;4.10;;
83284;SDS011;73191;50.074;8.488;2024-01-07T07:11:29;7.97;;;4.35;;
83284;SDS011;73191;50.074;8.488;2024-01-07T07:13:57;8.85;;;4.78;;
83284;SDS011;73191;50.074;8.488;2024-01-07T07:16:24;9.13;;;4.97;;
83284;SDS011;73191;50.074;8.488;2024-01-07T07:18:54;8.75;;;5.13;;
83284;SDS011;73191;50.074;8.488;2024-01-07T07:21:21;6.88;;;4.38;;
83284;SDS011;73191;50.074;8.488;2024-01-07T07:23:49;10.77;;;5.15;;
83284;SDS011;73191;50.074;8.488;2024-01-07T07:26:17;10.35;;;5.75;;
83284;SDS011;73191;50.074;8.488;2024-01-07T07:28:45;10.85;;;5.22;;
83284;SDS011;73191;50.074;8.488;2024-01-07T07:31:12;10.98;;;6.00;;
83284;SDS011;73191;50.074;8.488;2024-01-07T07:33:40;9.38;;;5.38;;
83284;SDS011;73191;50.074;8.488;2024-01-07T07:36:10;13.13;;;6.10;;
83284;SDS011;73191;50.074;8.488;2024-01-07T07:38:37;13.40;;;6.75;;
83284;SDS011;73191;50.074;8.488;2024-01-07T07:41:05;12.70;;;6.88;;
83284;SDS011;73191;50.074;8.488;2024-01-07T07:43:33;11.95;;;6.28;;
83284;SDS011;73191;50.074;8.488;2024-01-07T07:46:01;11.15;;;6.13;;
83284;SDS011;73191;50.074;8.488;2024-01-07T07:48:29;13.20;;;6.57;;
83284;SDS011;73191;50.074;8.488;2024-01-07T07:50:57;14.38;;;6.63;;
83284;SDS011;73191;50.074;8.488;2024-01-07T07:53:26;11.95;;;6.13;;
83284;SDS011;73191;50.074;8.488;2024-01-07T07:55:54;14.50;;;6.35;;
83284;SDS011;73191;50.074;8.488;2024-01-07T07:58:21;11.00;;;6.13;;
83284;SDS011;73191;50.074;8.488;2024-01-07T08:00:49;12.95;;;5.88;;
83284;SDS011;73191;50.074;8.488;2024-01-07T08:03:16;12.15;;;6.70;;
83284;SDS011;73191;50.074;8.488;2024-01-07T08:05:44;14.52;;;7.97;;
83284;SDS011;73191;50.074;8.488;2024-01-07T08:08:12;15.82;;;8.40;;
83284;SDS011;73191;50.074;8.488;2024-01-07T08:10:41;14.80;;;8.23;;
83284;SDS011;73191;50.074;8.488;2024-01-07T08:13:09;14.18;;;7.07;;
83284;SDS011;73191;50.074;8.488;2024-01-07T08:15:36;13.82;;;7.05;;
83284;SDS011;73191;50.074;8.488;2024-01-07T08:18:05;11.63;;;6.45;;
83284;SDS011;73191;50.074;8.488;2024-01-07T08:20:33;15.85;;;6.50;;
83284;SDS011;73191;50.074;8.488;2024-01-07T08:23:00;11.45;;;6.63;;
83284;SDS011;73191;50.074;8.488;2024-01-07T08:25:28;13.57;;;6.72;;
83284;SDS011;73191;50.074;8.488;2024-01-07T08:27:57;14.82;;;7.10;;
83284;SDS011;73191;50.074;8.488;2024-01-07T08:30:25;13.43;;;6.55;;
83284;SDS011;73191;50.074;8.488;2024-01-07T08:32:53;13.63;;;7.13;;
83284;SDS011;73191;50.074;8.488;2024-01-07T08:35:21;14.13;;;7.82;;
83284;SDS011;73191;50.074;8.488;2024-01-07T08:37:52;14.95;;;7.45;;
83284;SDS011;73191;50.074;8.488;2024-01-07T08:40:20;17.20;;;8.25;;
83284;SDS011;73191;50.074;8.488;2024-01-07T08:42:48;13.38;;;6.53;;
83284;SDS011;73191;50.074;8.488;2024-01-07T08:45:17;13.82;;;6.70;;
83284;SDS011;73191;50.074;8.488;2024-01-07T08:47:45;12.07;;;6.70;;
83284;SDS011;73191;50.074;8.488;2024-01-07T08:50:13;14.25;;;7.43;;
83284;SDS011;73191;50.074;8.488;2024-01-07T08:52:40;13.88;;;6.97;;
83284;SDS011;73191;50.074;8.488;2024-01-07T08:55:08;14.05;;;6.20;;
83284;SDS011;73191;50.074;8.488;2024-01-07T08:57:37;13.95;;;6.65;;
83284;SDS011;73191;50.074;8.488;2024-01-07T09:00:05;13.63;;;6.78;;
83284;SDS011;73191;50.074;8.488;2024-01-07T09:02:36;10.77;;;6.38;;
83284;SDS011;73191;50.074;8.488;2024-01-07T09:05:09;10.23;;;5.70;;
83284;SDS011;73191;50.074;8.488;2024-01-07T09:07:37;13.52;;;6.28;;
83284;SDS011;73191;50.074;8.488;2024-01-07T09:10:05;11.50;;;6.28;;
83284;SDS011;73191;50.074;8.488;2024-01-07T09:12:37;13.45;;;6.65;;
83284;SDS011;73191;50.074;8.488;2024-01-07T09:15:05;12.70;;;6.55;;
83284;SDS011;73191;50.074;8.488;2024-01-07T09:17:36;10.82;;;5.70;;
83284;SDS011;73191;50.074;8.488;2024-01-07T09:20:06;11.13;;;5.95;;
83284;SDS011;73191;50.074;8.488;2024-01-07T09:22:35;12.30;;;6.47;;
83284;SDS011;73191;50.074;8.488;2024-01-07T09:25:03;12.13;;;5.97;;
83284;SDS011;73191;50.074;8.488;2024-01-07T09:27:31;10.15;;;5.57;;
83284;SDS011;73191;50.074;8.488;2024-01-07T09:29:59;13.32;;;5.80;;
83284;SDS011;73191;50.074;8.488;2024-01-07T09:32:27;11.45;;;5.93;;
83284;SDS011;73191;50.074;8.488;2024-01-07T09:34:56;11.30;;;5.35;;
83284;SDS011;73191;50.074;8.488;2024-01-07T09:37:24;10.13;;;5.43;;
83284;SDS011;73191;50.074;8.488;2024-01-07T09:39:52;9.27;;;4.97;;
83284;SDS011;73191;50.074;8.488;2024-01-07T09:42:20;10.15;;;5.47;;
83284;SDS011;73191;50.074;8.488;2024-01-07T09:44:47;9.65;;;5.28;;
83284;SDS011;73191;50.074;8.488;2024-01-07T09:47:16;10.40;;;5.32;;
83284;SDS011;73191;50.074;8.488;2024-01-07T09:49:44;8.45;;;4.93;;
83284;SDS011;73191;50.074;8.488;2024-01-07T09:52:13;9.15;;;5.28;;
83284;SDS011;73191;50.074;8.488;2024-01-07T09:54:41;7.72;;;5.00;;
83284;SDS011;73191;50.074;8.488;2024-01-07T09:57:09;8.57;;;4.80;;
83284;SDS011;73191;50.074;8.488;2024-01-07T09:59:36;6.85;;;4.45;;
83284;SDS011;73191;50.074;8.488;2024-01-07T10:02:05;8.45;;;4.55;;
83284;SDS011;73191;50.074;8.488;2024-01-07T10:04:33;8.43;;;5.15;;
83284;SDS011;73191;50.074;8.488;2024-01-07T10:07:01;8.40;;;4.65;;
83284;SDS011;73191;50.074;8.488;2024-01-07T10:09:32;8.90;;;5.43;;
83284;SDS011;73191;50.074;8.488;2024-01-07T10:12:01;9.55;;;5.05;;
83284;SDS011;73191;50.074;8.488;2024-01-07T10:14:29;8.75;;;5.47;;
83284;SDS011;73191;50.074;8.488;2024-01-07T10:16:59;7.47;;;5.07;;
83284;SDS011;73191;50.074;8.488;2024-01-07T10:19:27;8.65;;;5.53;;
83284;SDS011;73191;50.074;8.488;2024-01-07T10:21:58;11.35;;;5.47;;
83284;SDS011;73191;50.074;8.488;2024-01-07T10:24:31;10.75;;;5.50;;
83284;SDS011;73191;50.074;8.488;2024-01-07T10:27:03;11.13;;;6.35;;
83284;SDS011;73191;50.074;8.488;2024-01-07T10:29:31;9.85;;;5.57;;
83284;SDS011;73191;50.074;8.488;2024-01-07T10:31:58;10.40;;;5.32;;
83284;SDS011;73191;50.074;8.488;2024-01-07T10:34:29;8.57;;;4.70;;
83284;SDS011;73191;50.074;8.488;2024-01-07T10:36:58;9.38;;;5.32;;
83284;SDS011;73191;50.074;8.488;2024-01-07T10:39:26;8.20;;;5.15;;
83284;SDS011;73191;50.074;8.488;2024-01-07T10:41:56;9.02;;;5.60;;
83284;SDS011;73191;50.074;8.488;2024-01-07T10:44:25;9.13;;;5.10;;
83284;SDS011;73191;50.074;8.488;2024-01-07T10:46:53;8.00;;;5.32;;
83284;SDS011;73191;50.074;8.488;2024-01-07T10:49:22;9.80;;;5.72;;
83284;SDS011;73191;50.074;8.488;2024-01-07T10:51:56;7.95;;;4.97;;
83284;SDS011;73191;50.074;8.488;2024-01-07T10:54:28;11.05;;;6.18;;
83284;SDS011;73191;50.074;8.488;2024-01-07T10:56:59;9.13;;;5.18;;
83284;SDS011;73191;50.074;8.488;2024-01-07T10:59:27;10.07;;;5.47;;
83284;SDS011;73191;50.074;8.488;2024-01-07T11:01:56;8.85;;;5.07;;
83284;SDS011;73191;50.074;8.488;2024-01-07T11:04:29;9.10;;;5.60;;
83284;SDS011;73191;50.074;8.488;2024-01-07T11:07:00;8.40;;;5.10;;
83284;SDS011;73191;50.074;8.488;2024-01-07T11:09:31;9.75;;;5.20;;
83284;SDS011;73191;50.074;8.488;2024-01-07T11:12:04;10.82;;;6.07;;
83284;SDS011;73191;50.074;8.488;2024-01-07T11:14:33;8.00;;;4.93;;
83284;SDS011;73191;50.074;8.488;2024-01-07T11:17:01;9.65;;;5.68;;
83284;SDS011;73191;50.074;8.488;2024-01-07T11:19:29;9.00;;;4.97;;
83284;SDS011;73191;50.074;8.488;2024-01-07T11:24:49;8.77;;;5.25;;
83284;SDS011;73191;50.074;8.488;2024-01-07T11:27:20;9.52;;;5.47;;
83284;SDS011;73191;50.074;8.488;2024-01-07T11:29:52;8.40;;;4.70;;
83284;SDS011;73191;50.074;8.488;2024-01-07T11:32:21;9.20;;;5.18;;
83284;SDS011;73191;50.074;8.488;2024-01-07T11:34:49;8.75;;;5.20;;
83284;SDS011;73191;50.074;8.488;2024-01-07T11:37:19;8.35;;;5.10;;
83284;SDS011;73191;50.074;8.488;2024-01-07T11:39:48;8.48;;;5.13;;
83284;SDS011;73191;50.074;8.488;2024-01-07T11:42:19;9.85;;;5.43;;
83284;SDS011;73191;50.074;8.488;2024-01-07T11:44:49;7.68;;;4.53;;
83284;SDS011;73191;50.074;8.488;2024-01-07T11:47:19;8.60;;;5.57;;
83284;SDS011;73191;50.074;8.488;2024-01-07T11:49:48;8.82;;;5.20;;
83284;SDS011;73191;50.074;8.488;2024-01-07T11:52:16;8.18;;;4.72;;
83284;SDS011;73191;50.074;8.488;2024-01-07T11:54:44;8.18;;;5.28;;
83284;SDS011;73191;50.074;8.488;2024-01-07T11:57:13;6.55;;;4.78;;
83284;SDS011;73191;50.074;8.488;2024-01-07T11:59:42;9.00;;;5.47;;
83284;SDS011;73191;50.074;8.488;2024-01-07T12:02:11;10.32;;;5.45;;
83284;SDS011;73191;50.074;8.488;2024-01-07T12:04:38;9.82;;;5.45;;
83284;SDS011;73191;50.074;8.488;2024-01-07T12:07:06;9.48;;;5.50;;
83284;SDS011;73191;50.074;8.488;2024-01-07T12:09:35;11.98;;;5.80;;
83284;SDS011;73191;50.074;8.488;2024-01-07T12:12:03;8.75;;;5.15;;
83284;SDS011;73191;50.074;8.488;2024-01-07T12:14:31;9.32;;;5.28;;
83284;SDS011;73191;50.074;8.488;2024-01-07T12:17:01;15.25;;;6.40;;
83284;SDS011;73191;50.074;8.488;2024-01-07T12:19:28;9.82;;;5.60;;
83284;SDS011;73191;50.074;8.488;2024-01-07T12:22:03;12.32;;;5.22;;
83284;SDS011;73191;50.074;8.488;2024-01-07T12:24:31;15.35;;;6.82;;
83284;SDS011;73191;50.074;8.488;2024-01-07T12:27:03;18.88;;;6.45;;
83284;SDS011;73191;50.074;8.488;2024-01-07T12:29:31;11.18;;;5.30;;
83284;SDS011;73191;50.074;8.488;2024-01-07T12:31:58;10.88;;;5.57;;
83284;SDS011;73191;50.074;8.488;2024-01-07T12:34:29;12.15;;;5.55;;
83284;SDS011;73191;50.074;8.488;2024-01-07T12:36:58;10.07;;;5.85;;
83284;SDS011;73191;50.074;8.488;2024-01-07T12:39:26;9.70;;;5.43;;
83284;SDS011;73191;50.074;8.488;2024-01-07T12:41:54;12.55;;;6.18;;
83284;SDS011;73191;50.074;8.488;2024-01-07T12:44:26;11.23;;;6.00;;
83284;SDS011;73191;50.074;8.488;2024-01-07T12:46:54;10.32;;;5.72;;
83284;SDS011;73191;50.074;8.488;2024-01-07T12:49:23;10.65;;;5.32;;
83284;SDS011;73191;50.074;8.488;2024-01-07T12:51:51;10.25;;;5.55;;
83284;SDS011;73191;50.074;8.488;2024-01-07T12:54:19;9.43;;;5.47;;
83284;SDS011;73191;50.074;8.488;2024-01-07T12:56:47;10.00;;;4.90;;
83284;SDS011;73191;50.074;8.488;2024-01-07T12:59:15;10.13;;;5.47;;
83284;SDS011;73191;50.074;8.488;2024-01-07T13:01:43;7.78;;;4.45;;
83284;SDS011;73191;50.074;8.488;2024-01-07T13:04:11;10.80;;;5.63;;
83284;SDS011;73191;50.074;8.488;2024-01-07T13:06:40;10.10;;;5.90;;
83284;SDS011;73191;50.074;8.488;2024-01-07T13:09:08;12.65;;;6.72;;
83284;SDS011;73191;50.074;8.488;2024-01-07T13:11:35;12.45;;;5.72;;
83284;SDS011;73191;50.074;8.488;2024-01-07T13:14:03;13.80;;;6.70;;
83284;SDS011;73191;50.074;8.488;2024-01-07T13:16:32;11.18;;;5.22;;
83284;SDS011;73191;50.074;8.488;2024-01-07T13:18:59;12.65;;;5.25;;
83284;SDS011;73191;50.074;8.488;2024-01-07T13:21:27;9.48;;;4.72;;
83284;SDS011;73191;50.074;8.488;2024-01-07T13:23:59;10.80;;;5.45;;
83284;SDS011;73191;50.074;8.488;2024-01-07T13:26:28;12.60;;;6.05;;
83284;SDS011;73191;50.074;8.488;2024-01-07T13:28:56;11.63;;;5.60;;
83284;SDS011;73191;50.074;8.488;2024-01-07T13:31:23;7.72;;;4.25;;
83284;SDS011;73191;50.074;8.488;2024-01-07T13:33:51;9.35;;;4.85;;
83284;SDS011;73191;50.074;8.488;2024-01-07T13:36:19;9.77;;;4.57;;
83284;SDS011;73191;50.074;8.488;2024-01-07T13:38:47;10.40;;;4.78;;
83284;SDS011;73191;50.074;8.488;2024-01-07T13:41:17;8.40;;;4.25;;
83284;SDS011;73191;50.074;8.488;2024-01-07T13:43:45;10.13;;;4.68;;
83284;SDS011;73191;50.074;8.488;2024-01-07T13:46:13;7.25;;;4.45;;
83284;SDS011;73191;50.074;8.488;2024-01-07T13:48:40;9.75;;;4.70;;
83284;SDS011;73191;50.074;8.488;2024-01-07T13:51:10;11.45;;;4.63;;
83284;SDS011;73191;50.074;8.488;2024-01-07T13:53:37;14.43;;;6.78;;
83284;SDS011;73191;50.074;8.488;2024-01-07T13:56:06;11.95;;;6.18;;
83284;SDS011;73191;50.074;8.488;2024-01-07T13:58:36;12.35;;;5.20;;
83284;SDS011;73191;50.074;8.488;2024-01-07T14:01:04;8.95;;;4.28;;
83284;SDS011;73191;50.074;8.488;2024-01-07T14:03:33;9.55;;;4.60;;
83284;SDS011;73191;50.074;8.488;2024-01-07T14:06:00;8.02;;;4.25;;
83284;SDS011;73191;50.074;8.488;2024-01-07T14:08:29;9.95;;;4.90;;
83284;SDS011;73191;50.074;8.488;2024-01-07T14:10:57;8.60;;;4.90;;
83284;SDS011;73191;50.074;8.488;2024-01-07T14:13:25;11.52;;;5.00;;
83284;SDS011;73191;50.074;8.488;2024-01-07T14:15:55;10.13;;;4.72;;
83284;SDS011;73191;50.074;8.488;2024-01-07T14:18:23;9.18;;;4.43;;
83284;SDS011;73191;50.074;8.488;2024-01-07T14:20:51;7.82;;;4.55;;
83284;SDS011;73191;50.074;8.488;2024-01-07T14:23:20;10.23;;;4.88;;
83284;SDS011;73191;50.074;8.488;2024-01-07T14:25:47;9.05;;;4.28;;
83284;SDS011;73191;50.074;8.488;2024-01-07T14:28:15;8.20;;;4.75;;
83284;SDS011;73191;50.074;8.488;2024-01-07T14:30:43;6.10;;;4.13;;
83284;SDS011;73191;50.074;8.488;2024-01-07T14:33:12;9.25;;;5.25;;
83284;SDS011;73191;50.074;8.488;2024-01-07T14:35:41;9.73;;;4.90;;
83284;SDS011;73191;50.074;8.488;2024-01-07T14:38:08;9.75;;;3.83;;
83284;SDS011;73191;50.074;8.488;2024-01-07T14:40:36;6.82;;;3.83;;
83284;SDS011;73191;50.074;8.488;2024-01-07T14:43:04;6.65;;;3.83;;
83284;SDS011;73191;50.074;8.488;2024-01-07T14:45:32;7.15;;;3.97;;
83284;SDS011;73191;50.074;8.488;2024-01-07T14:48:00;6.20;;;3.88;;
83284;SDS011;73191;50.074;8.488;2024-01-07T14:50:29;6.53;;;4.07;;
83284;SDS011;73191;50.074;8.488;2024-01-07T14:53:06;6.50;;;3.70;;
83284;SDS011;73191;50.074;8.488;2024-01-07T14:55:34;7.43;;;3.90;;